CheckWX is a tool to help pilots better visualize weather data.  It is not intended as a substitute for an official pre-flight weather briefing.

12:45:06 UTC

KBRY METAR
Samuels Field Airport
Bardstown, Kentucky, USA
Current

10 mins ago

KBRY 161235Z AUTO 18004KT 10SM SCT007 SCT014 SCT023 18/18 A2994 RMK AO1
Observed
Jun-16 @ 12:35 UTC
Wind
  • 180° at 4 KTS
Visibility
10 SM
Flight Rules
VFR
Cloud Levels
  • Scattered at 700' AGL
  • Scattered at 1,400' AGL
  • Scattered at 2,300' AGL
Temperature
18°C / 64°F
Dewpoint
18°C / 64°F
Humidity
100%
Altimeter
29.94" Hg
Pressure
1013.92 hPa
Previous

30 mins ago

KBRY 161215Z AUTO 26003KT 3SM SCT007 BKN014 OVC036 18/17 A2996 RMK AO1
Observed
Jun-16 @ 12:15 UTC
Wind
  • 260° at 3 KTS
Visibility
3 SM
Flight Rules
MVFR
Cloud Levels
  • Scattered at 700' AGL
  • Broken at 1,400' AGL
  • Overcast at 3,600' AGL
Temperature
18°C / 64°F
Dewpoint
17°C / 63°F
Humidity
94%
Altimeter
29.96" Hg
Pressure
1014.52 hPa
Previous

50 mins ago

KBRY 161155Z AUTO 33006G15KT 10SM SCT021 BKN034 OVC040 20/17 A2996 RMK AO1
Observed
Jun-16 @ 11:55 UTC
Wind
  • 330° at 6 KTS
  • Gusting to 15 KTS
Visibility
10 SM
Flight Rules
VFR
Cloud Levels
  • Scattered at 2,100' AGL
  • Broken at 3,400' AGL
  • Overcast at 4,000' AGL
Temperature
20°C / 68°F
Dewpoint
17°C / 63°F
Humidity
83%
Altimeter
29.96" Hg
Pressure
1014.52 hPa